createdAt,value
2023-02-16T00:03:01.597Z,27.55
2023-02-16T00:06:04.705Z,27.50
2023-02-16T00:09:07.891Z,27.27
2023-02-16T00:12:37.078Z,27.56
2023-02-16T00:15:40.805Z,27.27
2023-02-16T00:18:45.360Z,27.41
2023-02-16T00:21:49.026Z,27.13
2023-02-16T00:24:52.020Z,27.31
2023-02-16T00:27:55.067Z,27.29
2023-02-16T00:30:58.277Z,27.49
2023-02-16T00:34:21.304Z,27.31
2023-02-16T00:37:24.922Z,27.38
2023-02-16T00:40:27.915Z,26.98
2023-02-16T00:43:32.206Z,27.18
2023-02-16T00:46:35.275Z,27.18
2023-02-16T00:49:39.753Z,27.25
2023-02-16T00:52:43.402Z,27.22
2023-02-16T00:55:46.555Z,27.16
2023-02-16T00:58:53.873Z,27.02
2023-02-16T01:01:57.688Z,27.08
2023-02-16T01:05:02.129Z,26.81
2023-02-16T01:08:28.149Z,27.00
2023-02-16T01:11:31.364Z,26.71
2023-02-16T01:14:34.607Z,27.07
2023-02-16T01:17:37.575Z,26.98
2023-02-16T01:20:42.040Z,26.91
2023-02-16T01:23:45.456Z,27.01
2023-02-16T01:26:51.266Z,26.97
2023-02-16T01:29:54.236Z,26.95
2023-02-16T01:32:57.238Z,26.85
2023-02-16T01:36:01.697Z,26.82
2023-02-16T01:39:05.657Z,26.84
2023-02-16T01:42:19.697Z,26.79
2023-02-16T01:45:31.861Z,26.94
2023-02-16T01:48:34.923Z,26.81
2023-02-16T01:51:49.779Z,27.04
2023-02-16T01:54:57.147Z,26.84
2023-02-16T01:58:03.870Z,26.97
2023-02-16T02:01:43.171Z,26.84
2023-02-16T02:05:07.658Z,26.62
2023-02-16T02:08:25.983Z,26.50
2023-02-16T02:11:34.019Z,26.69
2023-02-16T02:14:39.718Z,26.64
2023-02-16T02:17:42.733Z,26.66
2023-02-16T02:21:16.093Z,26.75
2023-02-16T02:24:50.739Z,26.59
2023-02-16T02:28:02.268Z,26.70
2023-02-16T02:31:09.734Z,26.42
2023-02-16T02:34:24.477Z,26.41
2023-02-16T02:37:36.360Z,26.35
2023-02-16T02:40:49.390Z,26.36
2023-02-16T02:44:00.515Z,26.23
2023-02-16T02:47:03.475Z,26.41
2023-02-16T02:50:38.705Z,26.25
2023-02-16T02:53:46.498Z,26.19
2023-02-16T02:57:12.071Z,26.26
2023-02-16T03:00:38.373Z,26.31
2023-02-16T03:03:45.347Z,26.28
2023-02-16T03:06:51.301Z,26.25
2023-02-16T03:10:14.288Z,26.51
2023-02-16T03:13:21.852Z,26.34
2023-02-16T03:16:32.331Z,26.28
2023-02-16T03:19:52.736Z,26.33
2023-02-16T03:23:15.052Z,26.22
2023-02-16T03:26:38.069Z,26.41
2023-02-16T03:29:41.686Z,26.09
2023-02-16T03:32:47.376Z,26.17
2023-02-16T03:35:51.351Z,26.40
2023-02-16T03:38:55.654Z,26.29
2023-02-16T03:41:59.287Z,26.00
2023-02-16T03:45:02.362Z,26.20
2023-02-16T03:48:07.490Z,26.27
2023-02-16T03:51:10.617Z,26.11
2023-02-16T03:54:13.681Z,26.08
2023-02-16T03:57:17.123Z,26.06
2023-02-16T04:00:20.680Z,26.07
2023-02-16T04:03:25.069Z,26.26
2023-02-16T04:06:28.084Z,26.04
2023-02-16T04:09:31.138Z,26.09
2023-02-16T04:12:39.697Z,26.06
2023-02-16T04:15:42.941Z,26.25
2023-02-16T04:18:47.387Z,26.23
2023-02-16T04:21:50.447Z,25.96
2023-02-16T04:24:53.467Z,26.02
2023-02-16T04:27:57.074Z,26.21
2023-02-16T04:31:00.140Z,26.34
2023-02-16T04:34:04.556Z,26.34
2023-02-16T04:37:07.686Z,26.54
2023-02-16T04:40:13.812Z,26.33
2023-02-16T04:43:16.906Z,26.14
2023-02-16T04:46:20.235Z,26.43
2023-02-16T04:49:24.661Z,26.39
2023-02-16T04:52:27.664Z,26.54
2023-02-16T04:55:31.044Z,26.80
2023-02-16T04:58:34.003Z,26.74
2023-02-16T05:01:37.179Z,26.68
2023-02-16T05:04:42.328Z,26.49
2023-02-16T05:07:45.519Z,27.27
2023-02-16T05:11:08.925Z,27.19
2023-02-16T05:14:37.075Z,26.73
2023-02-16T05:17:40.107Z,26.55
2023-02-16T05:21:02.272Z,27.07
2023-02-16T05:24:08.327Z,26.92
2023-02-16T05:27:14.087Z,26.65
2023-02-16T05:30:17.290Z,26.55
2023-02-16T05:33:20.320Z,26.72
2023-02-16T05:36:25.004Z,26.50
2023-02-16T05:39:28.011Z,26.34
2023-02-16T05:42:31.176Z,26.02
2023-02-16T05:45:34.178Z,26.18
2023-02-16T05:48:37.190Z,26.13
2023-02-16T05:51:41.602Z,26.06
2023-02-16T05:54:44.644Z,26.04
2023-02-16T05:57:47.635Z,25.98
2023-02-16T06:00:50.592Z,25.97
2023-02-16T06:03:53.738Z,26.21
2023-02-16T06:06:58.094Z,25.91
2023-02-16T06:10:01.122Z,25.62
2023-02-16T06:13:04.280Z,25.90
2023-02-16T06:16:07.678Z,25.90
2023-02-16T06:19:11.635Z,25.90
2023-02-16T06:22:15.967Z,25.90
2023-02-16T06:25:20.335Z,25.62
2023-02-16T06:28:23.349Z,25.74
2023-02-16T06:31:26.589Z,26.03
2023-02-16T06:34:29.625Z,25.36
2023-02-16T06:37:34.329Z,25.56
2023-02-16T06:40:37.304Z,25.10
2023-02-16T06:43:40.383Z,24.93
2023-02-16T06:46:44.407Z,25.00
2023-02-16T06:49:47.471Z,25.26
2023-02-16T06:52:52.013Z,25.20
2023-02-16T06:55:55.134Z,25.21
2023-02-16T06:58:58.187Z,24.80
2023-02-16T07:02:01.346Z,25.28
2023-02-16T07:05:04.639Z,25.09
2023-02-16T07:08:09.121Z,24.91
2023-02-16T07:11:12.544Z,25.58
2023-02-16T07:14:16.058Z,25.31
2023-02-16T07:17:19.032Z,25.78
2023-02-16T07:20:22.056Z,25.37
2023-02-16T07:23:27.173Z,25.67
2023-02-16T07:26:30.150Z,25.56
2023-02-16T07:29:33.240Z,25.70
2023-02-16T07:32:36.282Z,25.44
2023-02-16T07:35:39.732Z,25.67
2023-02-16T07:38:44.351Z,25.33
2023-02-16T07:41:47.500Z,25.29
2023-02-16T07:44:50.505Z,25.21
2023-02-16T07:47:53.553Z,25.12
2023-02-16T07:50:56.627Z,25.67
2023-02-16T07:54:02.047Z,25.19
2023-02-16T07:57:05.275Z,25.30
2023-02-16T08:00:09.649Z,25.53
2023-02-16T08:03:12.758Z,25.44
2023-02-16T08:06:16.550Z,25.55
2023-02-16T08:09:20.971Z,25.05
2023-02-16T08:12:23.998Z,25.54
2023-02-16T08:15:27.920Z,25.40
2023-02-16T08:18:31.776Z,25.27
2023-02-16T08:21:36.652Z,25.38
2023-02-16T08:24:41.066Z,25.54
2023-02-16T08:27:44.086Z,24.97
2023-02-16T08:30:47.043Z,25.67
2023-02-16T08:33:51.092Z,25.88
2023-02-16T08:36:56.607Z,25.81
2023-02-16T08:40:02.713Z,25.47
2023-02-16T08:43:05.673Z,25.93
2023-02-16T08:46:09.204Z,25.90
2023-02-16T08:49:13.238Z,25.47
2023-02-16T08:52:16.406Z,25.93
2023-02-16T08:55:21.086Z,25.39
2023-02-16T08:58:24.990Z,25.64
2023-02-16T09:01:28.088Z,25.46
2023-02-16T09:04:31.297Z,25.89
2023-02-16T09:07:35.156Z,25.94
2023-02-16T09:10:39.710Z,25.69
2023-02-16T09:13:43.359Z,25.81
2023-02-16T09:16:48.074Z,25.74
2023-02-16T09:19:51.177Z,26.19
2023-02-16T09:22:54.361Z,26.33
2023-02-16T09:26:02.185Z,26.80
2023-02-16T09:29:05.904Z,26.33
2023-02-16T09:32:09.935Z,26.13
2023-02-16T09:35:12.953Z,26.56
2023-02-16T09:38:17.811Z,26.39
2023-02-16T09:41:32.613Z,26.17
2023-02-16T09:44:45.652Z,26.62
2023-02-16T09:47:51.380Z,26.41
2023-02-16T09:50:55.474Z,26.57
2023-02-16T09:54:03.934Z,26.24
2023-02-16T09:57:19.565Z,25.91
2023-02-16T10:00:30.923Z,26.16
2023-02-16T10:03:49.692Z,26.29
2023-02-16T10:07:04.122Z,26.06
2023-02-16T10:10:09.273Z,26.48
2023-02-16T10:13:21.289Z,26.25
2023-02-16T10:16:31.105Z,26.17
2023-02-16T10:19:39.790Z,26.10
2023-02-16T10:22:49.656Z,26.04
2023-02-16T10:25:57.757Z,26.37
2023-02-16T10:29:08.566Z,26.17
2023-02-16T10:32:26.256Z,26.59
2023-02-16T10:35:42.179Z,26.36
2023-02-16T10:38:53.669Z,26.02
2023-02-16T10:42:03.626Z,25.89
2023-02-16T10:45:23.095Z,26.51
2023-02-16T10:48:26.427Z,26.25
2023-02-16T10:51:34.756Z,26.43
2023-02-16T10:54:37.970Z,26.07
2023-02-16T10:57:41.336Z,25.98
2023-02-16T11:00:52.879Z,26.67
2023-02-16T11:03:55.912Z,26.22
2023-02-16T11:07:10.877Z,26.78
2023-02-16T11:10:21.793Z,26.22
2023-02-16T11:13:31.800Z,26.20
2023-02-16T11:16:36.458Z,26.21
2023-02-16T11:19:42.678Z,26.34
2023-02-16T11:22:45.843Z,26.48
2023-02-16T11:25:56.717Z,26.33
2023-02-16T11:29:17.737Z,27.00
2023-02-16T11:32:22.668Z,26.82
2023-02-16T11:35:25.900Z,26.54
2023-02-16T11:38:32.101Z,26.96
2023-02-16T11:41:36.751Z,27.02
2023-02-16T11:44:43.547Z,26.82
2023-02-16T11:47:55.072Z,26.74
2023-02-16T11:51:00.956Z,27.13
2023-02-16T11:54:07.885Z,26.84
2023-02-16T11:57:15.749Z,26.86
2023-02-16T12:00:22.286Z,26.91
2023-02-16T12:03:45.604Z,26.83
2023-02-16T12:07:00.747Z,27.07
2023-02-16T12:10:09.870Z,26.97
2023-02-16T12:13:23.240Z,27.15
2023-02-16T12:16:33.761Z,27.13
2023-02-16T12:19:43.811Z,26.77
2023-02-16T12:22:49.350Z,26.78
2023-02-16T12:25:59.881Z,26.96
2023-02-16T12:29:20.807Z,26.82
2023-02-16T12:32:42.357Z,27.17
2023-02-16T12:36:03.828Z,27.33
2023-02-16T12:39:17.869Z,27.42
2023-02-16T12:42:38.493Z,28.00
2023-02-16T12:45:45.234Z,27.72
2023-02-16T12:48:53.923Z,27.83
2023-02-16T12:52:07.128Z,27.92
2023-02-16T12:55:20.915Z,28.44
2023-02-16T12:58:26.895Z,28.01
2023-02-16T13:01:34.035Z,27.96
2023-02-16T13:04:43.048Z,28.20
2023-02-16T13:07:50.267Z,28.00
2023-02-16T13:10:59.022Z,28.11
2023-02-16T13:14:05.683Z,28.14
2023-02-16T13:17:13.804Z,28.14
2023-02-16T13:20:19.908Z,27.98
2023-02-16T13:23:41.286Z,27.74
2023-02-16T13:26:58.376Z,28.14
2023-02-16T13:30:40.419Z,28.45
2023-02-16T13:33:57.290Z,28.29
2023-02-16T13:37:10.656Z,27.99
2023-02-16T13:40:40.970Z,27.87
2023-02-16T13:43:47.004Z,27.93
2023-02-16T13:46:53.960Z,28.13
2023-02-16T13:50:01.625Z,28.17
2023-02-16T13:53:19.207Z,28.25
2023-02-16T13:56:35.240Z,27.89
2023-02-16T14:00:02.629Z,27.94
2023-02-16T14:03:15.361Z,28.13
2023-02-16T14:06:34.310Z,28.03
2023-02-16T14:09:50.830Z,28.04
2023-02-16T14:12:55.264Z,27.91
2023-02-16T14:16:01.524Z,28.36
2023-02-16T14:19:17.871Z,27.99
2023-02-16T14:22:25.070Z,27.78
2023-02-16T14:25:36.244Z,27.81
2023-02-16T14:29:16.046Z,28.21
2023-02-16T14:32:26.449Z,27.99
2023-02-16T14:35:34.012Z,28.34
2023-02-16T14:38:38.962Z,28.18
2023-02-16T14:41:42.401Z,28.02
2023-02-16T14:45:03.745Z,28.06
2023-02-16T14:48:19.660Z,28.46
2023-02-16T14:51:45.905Z,28.32
2023-02-16T14:55:23.566Z,28.23
2023-02-16T14:58:46.042Z,28.36
2023-02-16T15:01:50.623Z,28.04
2023-02-16T15:04:53.809Z,28.30
2023-02-16T15:08:04.937Z,28.43
2023-02-16T15:11:16.951Z,28.35
2023-02-16T15:14:21.274Z,28.23
2023-02-16T15:17:32.934Z,27.92
2023-02-16T15:20:39.714Z,28.13
2023-02-16T15:23:50.769Z,28.57
2023-02-16T15:26:57.958Z,28.61
2023-02-16T15:30:09.478Z,28.58
2023-02-16T15:33:27.521Z,28.59
2023-02-16T15:36:35.951Z,28.73
2023-02-16T15:39:49.753Z,28.84
2023-02-16T15:43:07.114Z,28.79
2023-02-16T15:46:24.033Z,28.55
2023-02-16T15:49:30.442Z,28.35
2023-02-16T15:52:36.084Z,28.68
2023-02-16T15:55:43.890Z,28.91
2023-02-16T15:58:47.807Z,28.91
2023-02-16T16:01:58.953Z,28.53
2023-02-16T16:05:06.952Z,28.70
2023-02-16T16:08:14.502Z,28.87
2023-02-16T16:11:18.600Z,28.70
2023-02-16T16:14:23.426Z,28.75
2023-02-16T16:17:29.926Z,28.76
2023-02-16T16:20:37.971Z,29.40
2023-02-16T16:23:41.058Z,29.25
2023-02-16T16:26:55.478Z,29.07
2023-02-16T16:30:26.218Z,29.34
2023-02-16T16:33:29.276Z,29.24
2023-02-16T16:36:35.896Z,29.09
2023-02-16T16:39:41.513Z,29.71
2023-02-16T16:43:24.585Z,29.51
2023-02-16T16:46:29.860Z,30.29
2023-02-16T16:49:33.014Z,29.55
2023-02-16T16:52:40.560Z,29.53
2023-02-16T16:55:43.544Z,29.71
2023-02-16T17:02:06.892Z,29.76
2023-02-16T17:05:10.088Z,29.62
2023-02-16T17:08:14.457Z,29.91
2023-02-16T17:11:25.316Z,29.83
2023-02-16T17:14:28.630Z,29.55
2023-02-16T17:17:32.967Z,29.74
2023-02-16T17:23:53.203Z,29.94
2023-02-16T17:26:56.917Z,29.91
2023-02-16T17:29:59.980Z,29.50
2023-02-16T17:33:03.781Z,29.47
2023-02-16T17:36:08.708Z,29.64
2023-02-16T17:39:13.229Z,29.15
2023-02-16T17:42:16.310Z,29.35
2023-02-16T17:45:21.608Z,29.47
2023-02-16T17:48:28.170Z,29.85
2023-02-16T17:51:36.246Z,30.15
2023-02-16T17:54:41.024Z,30.03
2023-02-16T17:57:44.087Z,29.82
2023-02-16T18:00:47.701Z,30.16
2023-02-16T18:03:51.168Z,29.92
2023-02-16T18:06:54.174Z,29.89
2023-02-16T18:09:58.650Z,29.96
2023-02-16T18:13:01.970Z,29.92
2023-02-16T18:16:07.444Z,29.98
2023-02-16T18:19:15.110Z,30.36
2023-02-16T18:22:18.200Z,31.23
2023-02-16T18:25:23.162Z,30.42
2023-02-16T18:28:29.331Z,30.07
2023-02-16T18:31:32.529Z,29.62
2023-02-16T18:34:37.604Z,29.87
2023-02-16T18:37:41.439Z,29.92
2023-02-16T18:40:46.420Z,29.82
2023-02-16T18:43:49.514Z,30.05
2023-02-16T18:46:52.553Z,29.88
2023-02-16T18:49:56.372Z,29.82
2023-02-16T18:52:59.411Z,30.21
2023-02-16T18:56:04.183Z,29.77
2023-02-16T18:59:07.428Z,29.94
2023-02-16T19:02:12.824Z,29.91
2023-02-16T19:05:15.930Z,30.38
2023-02-16T19:08:19.031Z,30.17
2023-02-16T19:11:23.816Z,29.94
2023-02-16T19:14:26.853Z,30.38
2023-02-16T19:17:29.862Z,30.08
2023-02-16T19:20:33.030Z,30.36
2023-02-16T19:23:36.170Z,29.93
2023-02-16T19:26:41.277Z,29.88
2023-02-16T19:29:44.522Z,30.34
2023-02-16T19:32:47.515Z,30.44
2023-02-16T19:35:50.464Z,30.38
2023-02-16T19:38:53.947Z,30.45
2023-02-16T19:41:58.520Z,30.44
2023-02-16T19:45:01.519Z,30.12
2023-02-16T19:48:04.715Z,30.27
2023-02-16T19:51:09.469Z,30.16
2023-02-16T19:54:12.526Z,29.95
2023-02-16T19:57:17.103Z,30.05
2023-02-16T20:00:20.114Z,29.76
2023-02-16T20:03:23.189Z,29.96
2023-02-16T20:06:29.744Z,30.00
2023-02-16T20:09:32.803Z,29.94
2023-02-16T20:12:37.784Z,30.23
2023-02-16T20:15:40.818Z,29.85
2023-02-16T20:18:44.410Z,29.85
2023-02-16T20:21:47.410Z,30.32
2023-02-16T20:24:50.427Z,30.05
2023-02-16T20:27:56.779Z,30.30
2023-02-16T20:30:59.837Z,30.07
2023-02-16T20:34:03.743Z,29.96
2023-02-16T20:37:06.799Z,29.66
2023-02-16T20:40:11.049Z,29.64
2023-02-16T20:43:15.710Z,29.52
2023-02-16T20:46:19.459Z,29.68
2023-02-16T20:49:22.553Z,29.50
2023-02-16T20:52:25.627Z,29.52
2023-02-16T20:55:28.802Z,29.64
2023-02-16T20:58:33.576Z,29.24
2023-02-16T21:01:38.762Z,29.52
2023-02-16T21:04:41.842Z,29.13
2023-02-16T21:07:45.054Z,29.51
2023-02-16T21:10:48.248Z,29.34
2023-02-16T21:13:52.957Z,29.35
2023-02-16T21:16:55.923Z,29.31
2023-02-16T21:19:59.127Z,29.16
2023-02-16T21:23:03.606Z,28.97
2023-02-16T21:26:07.555Z,29.15
2023-02-16T21:29:12.309Z,29.18
2023-02-16T21:32:15.383Z,28.74
2023-02-16T21:35:18.619Z,28.53
2023-02-16T21:38:21.677Z,28.60
2023-02-16T21:41:28.813Z,28.69
2023-02-16T21:44:33.339Z,28.87
2023-02-16T21:47:53.756Z,28.72
2023-02-16T21:50:56.819Z,28.75
2023-02-16T21:54:00.104Z,28.48
2023-02-16T21:57:02.257Z,28.68
2023-02-16T22:00:11.217Z,28.56
2023-02-16T22:03:14.363Z,28.58
2023-02-16T22:06:17.430Z,28.48
2023-02-16T22:09:22.818Z,28.51
2023-02-16T22:12:26.029Z,28.55
2023-02-16T22:15:30.743Z,28.33
2023-02-16T22:18:34.182Z,28.25
2023-02-16T22:21:38.430Z,28.55
2023-02-16T22:24:41.550Z,28.59
2023-02-16T22:27:44.583Z,28.26
2023-02-16T22:30:49.052Z,28.52
2023-02-16T22:33:56.846Z,28.30
2023-02-16T22:36:59.878Z,28.24
2023-02-16T22:40:02.919Z,28.21
2023-02-16T22:43:05.933Z,28.32
2023-02-16T22:46:14.106Z,27.95
2023-02-16T22:49:17.151Z,28.34
2023-02-16T22:52:20.153Z,27.81
2023-02-16T22:55:23.203Z,28.14
2023-02-16T22:58:26.570Z,27.99
2023-02-16T23:01:31.509Z,27.67
2023-02-16T23:04:34.641Z,27.81
2023-02-16T23:07:37.637Z,28.06
2023-02-16T23:10:41.478Z,27.89
2023-02-16T23:13:44.507Z,28.03
2023-02-16T23:16:51.271Z,28.02
2023-02-16T23:19:54.406Z,28.09
2023-02-16T23:22:57.466Z,27.93
2023-02-16T23:26:00.544Z,27.90
2023-02-16T23:29:04.039Z,27.86
2023-02-16T23:32:08.536Z,27.85
2023-02-16T23:35:11.664Z,27.88
2023-02-16T23:38:16.523Z,27.74
2023-02-16T23:41:19.826Z,27.90
2023-02-16T23:44:22.920Z,27.66
2023-02-16T23:47:27.384Z,27.70
2023-02-16T23:50:30.428Z,27.53
2023-02-16T23:53:33.747Z,27.82
2023-02-16T23:56:36.855Z,27.71
2023-02-16T23:59:39.884Z,27.74
